Time;durP1;ratioP1;P1;durP2;ratioP2;P2;SDS_P1;SDS_P2;PMS_P1;PMS_P2;Temp;Humidity;BMP_temperature;BMP_pressure;BME280_temperature;BME280_humidity;BME280_pressure;Samples;Min_cycle;Max_cycle;Signal;HPM_P1;HPM_P2
2021/12/05 00:23:02;;;;;;;8.57;1.90;;;3.70;97.40;;;;;;5029155;28;20036;-77
2021/12/05 00:25:07;;;;;;;9.07;1.85;;;3.70;97.40;;;;;;5024548;28;20056;-78
2021/12/05 00:27:39;;;;;;;6.13;1.50;;;3.70;97.40;;;;;;5027522;28;20029;-77
2021/12/05 00:41:29;;;;;;;10.38;1.40;;;3.70;97.70;;;;;;5028934;28;20037;-78
2021/12/05 01:08:27;;;;;;;7.97;1.50;;;3.80;97.90;;;;;;5028438;28;20054;-77
2021/12/05 01:13:35;;;;;;;2.83;1.00;;;3.80;97.90;;;;;;5028278;28;20029;-79
2021/12/05 01:16:07;;;;;;;4.25;1.23;;;3.80;97.90;;;;;;5027036;28;20464;-78
2021/12/05 01:18:34;;;;;;;11.40;2.33;;;3.80;97.90;;;;;;5027390;28;20124;-79
2021/12/05 01:21:08;;;;;;;3.38;1.33;;;3.80;97.90;;;;;;5027143;28;20033;-78
2021/12/05 01:26:09;;;;;;;6.30;1.92;;;3.80;97.90;;;;;;5028286;28;20033;-77
2021/12/05 01:31:23;;;;;;;7.70;1.88;;;3.80;97.90;;;;;;5028292;28;20361;-78
2021/12/05 01:39:24;;;;;;;5.97;1.63;;;3.70;97.90;;;;;;5027139;28;20028;-78
2021/12/05 01:42:25;;;;;;;3.10;1.20;;;3.70;98.00;;;;;;5027052;28;20075;-78
2021/12/05 02:33:15;;;;;;;4.38;1.00;;;3.70;98.60;;;;;;5027421;28;20030;-79
2021/12/05 02:41:19;;;;;;;6.75;1.55;;;3.80;98.40;;;;;;5026763;28;20633;-77
2021/12/05 02:43:58;;;;;;;3.92;1.65;;;3.80;98.40;;;;;;5010597;28;20499;-77
2021/12/05 02:46:25;;;;;;;7.57;1.25;;;3.70;98.30;;;;;;5026514;28;20057;-77
2021/12/05 02:48:51;;;;;;;4.85;1.63;;;3.70;98.30;;;;;;5026254;28;20025;-79
2021/12/05 02:51:25;;;;;;;5.40;1.27;;;3.70;98.30;;;;;;4993220;28;20044;-77
2021/12/05 02:56:30;;;;;;;5.20;1.45;;;3.70;98.30;;;;;;5011344;28;20035;-77
2021/12/05 02:59:00;;;;;;;5.05;1.55;;;3.60;98.30;;;;;;5025991;28;20025;-77
2021/12/05 03:01:46;;;;;;;5.53;1.30;;;3.60;98.30;;;;;;5026209;28;20120;-78
2021/12/05 03:04:12;;;;;;;5.13;1.73;;;3.60;98.40;;;;;;5027356;28;20361;-78
2021/12/05 03:06:49;;;;;;;5.78;1.10;;;3.60;98.50;;;;;;5027463;28;20041;-78
2021/12/05 03:09:14;;;;;;;10.02;1.95;;;3.60;98.50;;;;;;5027237;28;20061;-78
2021/12/05 03:11:40;;;;;;;4.70;1.52;;;3.60;98.50;;;;;;5028301;28;20063;-77
2021/12/05 03:14:07;;;;;;;5.78;1.25;;;3.60;98.50;;;;;;5031394;28;20033;-78
2021/12/05 03:16:36;;;;;;;2.72;1.25;;;3.60;98.60;;;;;;5030650;28;20045;-78
2021/12/05 03:19:04;;;;;;;3.83;1.05;;;3.60;98.60;;;;;;5030798;28;20026;-78
2021/12/05 03:21:31;;;;;;;6.82;1.30;;;3.60;98.60;;;;;;5029469;28;20029;-78
2021/12/05 03:23:57;;;;;;;7.53;1.20;;;3.60;98.60;;;;;;5030588;28;20042;-78
2021/12/05 03:26:27;;;;;;;4.40;1.10;;;3.60;98.60;;;;;;5030808;28;20053;-78
2021/12/05 03:28:55;;;;;;;7.03;1.65;;;3.60;98.60;;;;;;5030625;28;20170;-78
2021/12/05 03:31:22;;;;;;;4.75;1.10;;;3.60;98.60;;;;;;5030457;28;20030;-78
2021/12/05 03:33:48;;;;;;;4.55;1.33;;;3.50;98.50;;;;;;5030460;28;20037;-76
2021/12/05 03:36:14;;;;;;;2.08;1.27;;;3.60;98.50;;;;;;5029245;28;20025;-77
2021/12/05 03:38:41;;;;;;;10.32;1.73;;;3.50;98.50;;;;;;5030562;28;20052;-78
2021/12/05 03:41:08;;;;;;;6.72;1.30;;;3.50;98.50;;;;;;5012730;28;20025;-78
2021/12/05 03:43:34;;;;;;;9.75;2.00;;;3.50;98.50;;;;;;5030316;28;20045;-77
2021/12/05 03:46:02;;;;;;;8.80;1.38;;;3.50;98.50;;;;;;5028965;28;20051;-77
2021/12/05 03:48:32;;;;;;;5.93;1.70;;;3.50;98.50;;;;;;5012752;28;20041;-77
2021/12/05 03:50:59;;;;;;;8.18;1.80;;;3.40;98.50;;;;;;5028943;28;20080;-78
2021/12/05 03:53:25;;;;;;;4.53;1.40;;;3.40;98.40;;;;;;5012426;28;20079;-80
2021/12/05 03:55:53;;;;;;;5.85;1.83;;;3.40;98.50;;;;;;5028532;28;20018;-78
2021/12/05 03:58:21;;;;;;;6.32;1.88;;;3.40;98.50;;;;;;5028814;28;20021;-78
2021/12/05 04:00:50;;;;;;;8.15;1.48;;;3.40;98.50;;;;;;5030129;28;20014;-78
2021/12/05 04:03:18;;;;;;;9.63;2.33;;;3.40;98.60;;;;;;5028691;28;20025;-78
2021/12/05 04:05:44;;;;;;;7.40;1.45;;;3.40;98.70;;;;;;5028711;28;20431;-78
2021/12/05 04:08:14;;;;;;;9.10;1.13;;;3.40;98.70;;;;;;5028592;28;20034;-79
2021/12/05 04:10:43;;;;;;;5.07;1.35;;;3.40;98.80;;;;;;5028553;28;20120;-76
2021/12/05 04:13:10;;;;;;;6.53;1.45;;;3.40;98.80;;;;;;5028481;28;20053;-78
2021/12/05 04:15:36;;;;;;;6.10;1.23;;;3.40;98.80;;;;;;5028590;28;20476;-78
2021/12/05 04:18:02;;;;;;;6.55;1.25;;;3.40;98.80;;;;;;5029617;28;20095;-78
2021/12/05 04:20:29;;;;;;;2.67;0.93;;;3.40;98.70;;;;;;5028359;28;20507;-78
2021/12/05 04:22:55;;;;;;;3.63;1.35;;;3.40;98.80;;;;;;5027909;28;20037;-76
2021/12/05 04:25:21;;;;;;;4.90;1.65;;;3.40;98.80;;;;;;5029582;28;20079;-78
2021/12/05 04:27:49;;;;;;;8.27;2.00;;;3.40;98.80;;;;;;5029583;28;20022;-77
2021/12/05 04:30:18;;;;;;;6.40;1.63;;;3.40;98.80;;;;;;5011707;28;20057;-78
2021/12/05 04:32:44;;;;;;;7.25;1.02;;;3.40;98.80;;;;;;5029469;28;20026;-77
2021/12/05 04:35:10;;;;;;;5.68;1.45;;;3.40;98.80;;;;;;5011657;28;20038;-78
2021/12/05 04:37:36;;;;;;;9.20;1.42;;;3.40;98.80;;;;;;5028038;28;20029;-79
2021/12/05 04:40:04;;;;;;;;;;;3.40;98.80;;;;;;5028586;28;20388;-78
2021/12/05 04:42:30;;;;;;;3.67;0.90;;;3.40;98.80;;;;;;5029206;28;19924;-77
2021/12/05 04:44:56;;;;;;;6.75;1.48;;;3.40;98.80;;;;;;5027864;28;20120;-78
2021/12/05 04:47:22;;;;;;;12.25;1.65;;;3.40;98.80;;;;;;5029164;28;20116;-78
2021/12/05 04:49:48;;;;;;;4.05;1.73;;;3.30;98.80;;;;;;5029127;28;20084;-79
2021/12/05 04:52:14;;;;;;;2.53;1.23;;;3.30;98.80;;;;;;5029099;28;20495;-78
2021/12/05 04:54:40;;;;;;;3.67;1.08;;;3.30;98.70;;;;;;5029065;28;20041;-78
2021/12/05 04:57:06;;;;;;;5.13;1.77;;;3.30;98.80;;;;;;5028960;28;20024;-78
2021/12/05 04:59:35;;;;;;;6.25;1.42;;;3.30;98.90;;;;;;5029073;28;20026;-77
2021/12/05 05:02:04;;;;;;;4.40;1.65;;;3.30;98.90;;;;;;5028825;28;20431;-77
2021/12/05 05:04:30;;;;;;;5.45;1.55;;;3.30;98.90;;;;;;5027394;28;20084;-77
2021/12/05 05:07:02;;;;;;;6.32;1.00;;;3.30;98.90;;;;;;5027524;28;20059;-77
2021/12/05 05:09:29;;;;;;;6.80;1.67;;;3.30;99.00;;;;;;5028878;28;20029;-77
2021/12/05 05:11:55;;;;;;;1.58;0.85;;;3.30;99.00;;;;;;5027432;28;20030;-77
2021/12/05 05:14:22;;;;;;;7.57;1.83;;;3.30;98.90;;;;;;5027333;28;20033;-77
2021/12/05 05:16:53;;;;;;;5.63;1.50;;;3.30;99.00;;;;;;5026965;28;20042;-77
2021/12/05 05:19:21;;;;;;;3.25;1.08;;;3.30;99.00;;;;;;5028477;28;20041;-78
2021/12/05 05:21:56;;;;;;;8.25;1.70;;;3.30;98.90;;;;;;5028388;28;20104;-77
2021/12/05 05:41:15;;;;;;;3.85;1.23;;;3.30;99.10;;;;;;5006008;28;20564;-78
2021/12/05 05:51:01;;;;;;;10.35;1.65;;;3.30;99.10;;;;;;5028205;28;20064;-78
2021/12/05 05:53:27;;;;;;;8.50;1.50;;;3.30;99.10;;;;;;5026581;28;20040;-78
2021/12/05 05:55:55;;;;;;;7.22;1.55;;;3.30;99.10;;;;;;5027876;28;20391;-78
2021/12/05 05:58:25;;;;;;;4.90;1.05;;;3.30;99.10;;;;;;5028057;28;20022;-77
2021/12/05 06:01:02;;;;;;;6.65;1.73;;;3.20;99.10;;;;;;5027945;28;20037;-78
2021/12/05 06:03:29;;;;;;;2.92;1.40;;;3.20;99.10;;;;;;5026547;28;20086;-78
2021/12/05 06:05:59;;;;;;;5.50;1.75;;;3.20;99.10;;;;;;5027708;28;20033;-78
2021/12/05 06:08:29;;;;;;;6.97;1.45;;;3.20;99.10;;;;;;5026696;28;20502;-77
2021/12/05 06:10:59;;;;;;;5.43;1.20;;;3.20;99.10;;;;;;5028178;28;20049;-77
2021/12/05 06:13:27;;;;;;;3.97;1.30;;;3.20;99.10;;;;;;5026428;28;20025;-78
2021/12/05 06:15:53;;;;;;;2.17;1.05;;;3.20;99.10;;;;;;5026261;28;20028;-77
2021/12/05 06:18:19;;;;;;;4.32;1.13;;;3.20;99.10;;;;;;5027568;28;20049;-77
2021/12/05 06:20:45;;;;;;;5.68;1.80;;;3.20;99.30;;;;;;5026498;28;20045;-78
2021/12/05 06:23:11;;;;;;;;;;;3.10;99.10;;;;;;5028183;28;20029;-77
2021/12/05 06:25:40;;;;;;;5.78;1.10;;;3.10;99.10;;;;;;5026240;28;19909;-78
2021/12/05 06:28:11;;;;;;;1.30;1.20;;;3.10;99.00;;;;;;5026275;28;20038;-77
2021/12/05 06:38:53;;;;;;;5.78;1.70;;;3.00;99.00;;;;;;5026735;28;20439;-78
2021/12/05 06:46:45;;;;;;;5.95;2.17;;;2.80;99.20;;;;;;5031530;28;20049;-79
2021/12/05 06:49:11;;;;;;;5.15;2.42;;;2.80;99.00;;;;;;5030192;28;20025;-77
2021/12/05 06:51:36;;;;;;;7.47;2.05;;;2.80;99.00;;;;;;4997220;28;20030;-78
2021/12/05 06:54:03;;;;;;;6.03;1.77;;;2.70;98.90;;;;;;5013677;28;20239;-77
2021/12/05 06:56:29;;;;;;;8.07;1.65;;;2.70;98.90;;;;;;5031046;28;20483;-78
2021/12/05 06:58:55;;;;;;;;;;;2.70;99.00;;;;;;5031661;28;20028;-78
2021/12/05 07:01:22;;;;;;;7.20;1.90;;;2.60;99.00;;;;;;5031205;28;19983;-78
2021/12/05 07:03:49;;;;;;;7.00;2.22;;;2.60;98.90;;;;;;5029709;28;20270;-78
2021/12/05 07:06:30;;;;;;;3.63;1.20;;;2.60;99.00;;;;;;5013445;28;20084;-78
2021/12/05 07:09:07;;;;;;;2.53;1.38;;;2.60;99.00;;;;;;5029642;28;20029;-78
2021/12/05 07:11:47;;;;;;;6.28;1.70;;;2.60;99.10;;;;;;5030946;28;20030;-77
2021/12/05 07:17:07;;;;;;;3.42;1.60;;;2.50;99.10;;;;;;5030923;28;20447;-78
2021/12/05 07:22:14;;;;;;;3.95;1.98;;;2.50;99.10;;;;;;5029621;28;20045;-77
2021/12/05 07:24:45;;;;;;;9.40;1.95;;;2.50;99.10;;;;;;5030794;28;20119;-76
2021/12/05 07:40:55;;;;;;;3.88;1.50;;;2.30;99.10;;;;;;5029642;28;20111;-77
2021/12/05 07:43:21;;;;;;;7.78;1.77;;;2.30;99.10;;;;;;5030898;28;20485;-77
2021/12/05 07:45:54;;;;;;;3.30;1.88;;;2.30;99.20;;;;;;5028866;28;20037;-78
2021/12/05 07:48:26;;;;;;;7.82;1.83;;;2.30;99.20;;;;;;5030438;28;20537;-78
2021/12/05 07:53:39;;;;;;;3.65;1.60;;;2.30;99.30;;;;;;5029990;28;20038;-78
2021/12/05 07:56:14;;;;;;;9.40;2.22;;;2.30;99.40;;;;;;5027947;28;20022;-77
2021/12/05 08:14:22;;;;;;;5.50;1.80;;;2.30;99.50;;;;;;5029743;28;20025;-78
2021/12/05 08:15:17;;;;;;;6.20;1.77;;;2.50;99.70;;;;;;5029433;28;20036;-78
2021/12/05 08:17:51;;;;;;;7.80;1.95;;;2.60;99.70;;;;;;5029566;28;20129;-78
2021/12/05 08:20:20;;;;;;;7.72;1.58;;;2.60;99.70;;;;;;5029495;28;20042;-78
2021/12/05 08:22:46;;;;;;;7.60;2.05;;;2.60;99.70;;;;;;5028165;28;20029;-78
2021/12/05 08:25:13;;;;;;;5.72;1.83;;;2.70;99.70;;;;;;5029582;28;20033;-77
2021/12/05 08:27:48;;;;;;;5.47;1.52;;;2.70;99.70;;;;;;5028185;28;20041;-78
2021/12/05 08:30:23;;;;;;;7.07;1.80;;;2.70;99.70;;;;;;5029176;28;20111;-78
2021/12/05 08:43:38;;;;;;;3.70;1.48;;;2.80;99.80;;;;;;5027852;28;20411;-77
2021/12/05 10:10:31;;;;;;;10.02;2.42;;;10.00;98.50;;;;;;5027737;28;20079;-77
2021/12/05 10:37:51;;;;;;;4.93;1.63;;;13.90;93.80;;;;;;5011889;28;20080;-76
2021/12/05 10:40:33;;;;;;;6.43;1.58;;;14.00;93.20;;;;;;5017616;28;20045;-76
2021/12/05 10:42:59;;;;;;;5.70;1.80;;;14.10;92.30;;;;;;5033715;28;20017;-77
2021/12/05 10:45:49;;;;;;;10.00;2.63;;;14.20;92.50;;;;;;5032266;28;20029;-77
2021/12/05 10:48:20;;;;;;;8.38;3.30;;;14.40;91.80;;;;;;5034647;28;20056;-77
2021/12/05 10:50:50;;;;;;;10.50;3.40;;;14.60;91.50;;;;;;5033496;28;20017;-77
2021/12/05 10:53:53;;;;;;;12.95;3.80;;;14.70;91.20;;;;;;5032096;28;20044;-75
2021/12/05 10:56:18;;;;;;;16.17;6.78;;;15.00;90.80;;;;;;5028938;28;20037;-76
2021/12/05 10:59:00;;;;;;;14.73;4.95;;;15.20;91.10;;;;;;5032288;28;20075;-78
2021/12/05 11:01:42;;;;;;;10.25;3.10;;;15.40;90.00;;;;;;5033448;28;20025;-78
2021/12/05 11:04:18;;;;;;;9.93;3.05;;;15.50;88.90;;;;;;5031958;28;20029;-77
2021/12/05 11:06:52;;;;;;;6.70;2.28;;;15.70;89.10;;;;;;5033217;28;20032;-77
2021/12/05 11:09:57;;;;;;;13.02;5.63;;;15.90;88.00;;;;;;5032014;28;20038;-77
2021/12/05 11:12:27;;;;;;;3.53;1.42;;;16.00;87.20;;;;;;4971914;28;20041;-77
2021/12/05 11:15:09;;;;;;;16.45;6.40;;;16.00;86.00;;;;;;5023256;28;20072;-76
2021/12/05 11:17:39;;;;;;;5.45;1.58;;;15.80;84.90;;;;;;5032881;28;20037;-76
2021/12/05 11:20:17;;;;;;;6.53;1.67;;;15.70;84.40;;;;;;5033158;28;20029;-77
2021/12/05 11:22:49;;;;;;;7.40;1.80;;;15.70;84.60;;;;;;5033132;28;20031;-77
2021/12/05 11:25:24;;;;;;;6.28;2.00;;;15.70;83.30;;;;;;5032886;28;20029;-77
2021/12/05 11:27:55;;;;;;;7.68;2.08;;;15.70;83.20;;;;;;5033312;28;20077;-76
2021/12/05 11:30:33;;;;;;;7.43;1.83;;;15.80;82.90;;;;;;5031520;28;20557;-78
2021/12/05 11:33:18;;;;;;;6.25;1.98;;;16.00;83.20;;;;;;5027695;28;20395;-77
2021/12/05 11:35:54;;;;;;;5.88;1.38;;;16.10;82.30;;;;;;5030204;28;20033;-78
2021/12/05 11:38:31;;;;;;;8.23;1.98;;;16.30;82.20;;;;;;5028728;28;20025;-78
2021/12/05 11:41:06;;;;;;;6.45;1.45;;;16.40;81.40;;;;;;5029629;28;20075;-76
2021/12/05 11:43:35;;;;;;;6.60;1.48;;;16.40;81.00;;;;;;5028343;28;20033;-77
2021/12/05 11:46:03;;;;;;;7.32;1.50;;;16.40;79.60;;;;;;5028312;28;20451;-77
2021/12/05 11:48:40;;;;;;;5.93;1.40;;;16.40;79.80;;;;;;5029615;28;20022;-77
2021/12/05 11:51:27;;;;;;;7.45;1.35;;;16.50;79.00;;;;;;5029558;28;20079;-77
2021/12/05 11:54:13;;;;;;;8.45;1.70;;;16.50;77.80;;;;;;5027854;28;20029;-77
2021/12/05 11:56:44;;;;;;;4.38;1.77;;;16.50;77.70;;;;;;5014201;28;20388;-77
2021/12/05 11:59:22;;;;;;;10.52;2.15;;;16.60;78.10;;;;;;5028291;28;20055;-77
2021/12/05 12:01:53;;;;;;;9.40;2.63;;;16.50;77.70;;;;;;5028122;28;20633;-76
2021/12/05 12:04:37;;;;;;;5.85;2.03;;;16.50;78.20;;;;;;5029482;28;20025;-75
2021/12/05 12:07:23;;;;;;;6.88;1.60;;;16.70;77.70;;;;;;5029084;28;20100;-75
2021/12/05 12:09:53;;;;;;;5.30;1.02;;;16.90;77.30;;;;;;5027938;28;20359;-76
2021/12/05 12:12:20;;;;;;;8.95;1.70;;;17.00;77.40;;;;;;5029086;28;20032;-76
2021/12/05 12:14:46;;;;;;;6.97;2.28;;;17.10;76.80;;;;;;5028829;28;20026;-76
2021/12/05 12:17:17;;;;;;;7.07;1.90;;;17.10;76.30;;;;;;5028757;28;20089;-76
2021/12/05 12:19:46;;;;;;;8.80;2.30;;;17.10;75.50;;;;;;5027719;28;20045;-76
2021/12/05 12:22:13;;;;;;;6.55;1.73;;;16.90;74.00;;;;;;5027334;28;20030;-75
2021/12/05 12:24:40;;;;;;;10.02;3.22;;;16.30;72.60;;;;;;5027637;28;20029;-75
2021/12/05 12:27:07;;;;;;;9.52;2.80;;;15.50;71.60;;;;;;5027474;28;20041;-77
2021/12/05 12:29:34;;;;;;;9.90;2.85;;;14.70;71.50;;;;;;5028369;28;20033;-76
2021/12/05 12:32:15;;;;;;;9.57;2.30;;;13.90;71.70;;;;;;5028379;28;20029;-76
2021/12/05 12:34:42;;;;;;;10.45;2.67;;;13.20;72.40;;;;;;5028453;28;20029;-75
2021/12/05 12:37:10;;;;;;;11.82;2.75;;;12.60;73.10;;;;;;5010913;28;20061;-76
2021/12/05 12:39:49;;;;;;;10.00;2.90;;;12.10;73.60;;;;;;5027537;28;20022;-76
2021/12/05 12:42:15;;;;;;;10.48;2.58;;;11.70;74.30;;;;;;5027284;28;20059;-76
2021/12/05 12:45:09;;;;;;;7.53;1.73;;;11.40;74.90;;;;;;5028676;28;20036;-75
2021/12/05 12:47:38;;;;;;;9.70;2.53;;;11.00;75.40;;;;;;5027230;28;20018;-77
2021/12/05 12:50:33;;;;;;;10.65;2.50;;;10.80;75.90;;;;;;5028493;28;20174;-77
2021/12/05 12:53:09;;;;;;;9.65;3.05;;;10.50;76.50;;;;;;5028490;28;20105;-76
2021/12/05 12:55:37;;;;;;;8.00;2.80;;;10.40;77.00;;;;;;5026972;28;20400;-76
2021/12/05 12:58:07;;;;;;;10.88;2.10;;;10.30;77.30;;;;;;5027938;28;20548;-76
2021/12/05 13:00:37;;;;;;;5.45;2.03;;;10.20;77.60;;;;;;5028262;28;20029;-76
2021/12/05 13:04:16;;;;;;;10.07;2.40;;;10.10;77.90;;;;;;5028531;28;20052;-77
2021/12/05 13:11:55;;;;;;;9.25;2.50;;;9.90;78.70;;;;;;5005976;28;20025;-78
2021/12/05 13:14:21;;;;;;;7.03;2.13;;;9.80;79.10;;;;;;5020636;28;20148;-75
2021/12/05 13:16:48;;;;;;;11.00;2.50;;;9.70;79.30;;;;;;5027271;28;20100;-76
2021/12/05 13:19:19;;;;;;;13.93;4.72;;;9.60;79.60;;;;;;5027054;28;20436;-75
2021/12/05 13:21:48;;;;;;;9.98;2.67;;;9.50;80.10;;;;;;5027090;28;20037;-76
2021/12/05 13:24:31;;;;;;;10.32;2.65;;;9.50;80.40;;;;;;5026439;28;20125;-76
2021/12/05 13:27:03;;;;;;;11.38;4.30;;;9.50;80.70;;;;;;5028050;28;20061;-76
2021/12/05 13:29:49;;;;;;;10.82;2.45;;;9.50;80.90;;;;;;5025945;28;20037;-76
2021/12/05 13:32:25;;;;;;;6.82;2.30;;;9.50;81.20;;;;;;5025807;28;20095;-76
2021/12/05 13:34:54;;;;;;;7.32;2.28;;;9.60;81.30;;;;;;5025906;28;20407;-76
2021/12/05 13:37:24;;;;;;;6.75;2.10;;;9.60;81.50;;;;;;5026251;28;20044;-76
2021/12/05 13:39:52;;;;;;;9.68;3.30;;;9.70;81.60;;;;;;5028182;28;20353;-76
2021/12/05 13:42:41;;;;;;;15.75;2.75;;;9.70;81.70;;;;;;5027312;28;20040;-77
2021/12/05 13:45:25;;;;;;;11.80;3.00;;;9.80;82.00;;;;;;5027712;28;20018;-76
2021/12/05 13:47:51;;;;;;;12.30;4.45;;;9.90;82.20;;;;;;5027130;28;20495;-76
2021/12/05 13:50:23;;;;;;;10.23;3.92;;;9.90;82.00;;;;;;5027281;28;20034;-77
2021/12/05 13:53:05;;;;;;;17.10;4.60;;;9.90;82.00;;;;;;5027430;28;20365;-76
2021/12/05 13:55:53;;;;;;;25.10;7.97;;;9.90;82.20;;;;;;5024969;28;20028;-77
2021/12/05 13:58:44;;;;;;;13.73;4.82;;;9.90;82.50;;;;;;5026854;28;20408;-76
2021/12/05 14:01:29;;;;;;;12.82;4.03;;;9.90;83.00;;;;;;5025214;28;20111;-77
2021/12/05 14:04:09;;;;;;;10.15;3.42;;;10.00;83.60;;;;;;5026928;28;20021;-77
2021/12/05 14:06:42;;;;;;;17.00;4.63;;;10.00;83.90;;;;;;5025421;28;20034;-76
2021/12/05 14:09:18;;;;;;;16.17;4.38;;;10.10;84.00;;;;;;5027774;28;20025;-75
2021/12/05 14:12:13;;;;;;;9.15;2.97;;;10.20;84.20;;;;;;5027008;28;20152;-77
2021/12/05 14:14:48;;;;;;;10.50;3.47;;;10.20;84.50;;;;;;5026599;28;20092;-78
2021/12/05 14:17:26;;;;;;;8.63;2.65;;;10.30;84.60;;;;;;5025195;28;20076;-76
2021/12/05 14:19:59;;;;;;;10.40;3.38;;;10.30;84.40;;;;;;5026630;28;20409;-75
2021/12/05 14:22:29;;;;;;;11.23;2.90;;;10.30;83.90;;;;;;5026644;28;20028;-77
2021/12/05 14:24:58;;;;;;;9.32;2.92;;;10.20;83.30;;;;;;5027574;28;20017;-78
2021/12/05 14:27:33;;;;;;;11.15;2.50;;;10.10;82.90;;;;;;5025532;28;20036;-77
2021/12/05 14:30:03;;;;;;;11.00;3.55;;;10.00;82.70;;;;;;5026612;28;20033;-78
2021/12/05 14:32:30;;;;;;;11.35;2.25;;;9.80;82.70;;;;;;5009312;28;20038;-78
2021/12/05 14:35:02;;;;;;;11.85;4.20;;;9.70;82.80;;;;;;5028856;28;20101;-76
2021/12/05 14:37:33;;;;;;;14.50;4.13;;;9.60;82.90;;;;;;5026636;28;20025;-76
2021/12/05 14:40:03;;;;;;;18.38;5.78;;;9.50;83.00;;;;;;5026918;28;20091;-77
2021/12/05 14:42:32;;;;;;;25.00;8.05;;;9.40;83.20;;;;;;5025464;28;20563;-76
2021/12/05 14:45:17;;;;;;;10.95;3.72;;;9.30;83.30;;;;;;5026694;28;20029;-76
2021/12/05 14:47:45;;;;;;;12.70;3.53;;;9.20;83.60;;;;;;5026478;28;20025;-77
2021/12/05 14:50:14;;;;;;;17.98;7.88;;;9.10;83.70;;;;;;5026093;28;20104;-77
2021/12/05 14:52:43;;;;;;;16.25;6.00;;;9.00;83.80;;;;;;5025826;28;20026;-77
2021/12/05 14:55:14;;;;;;;15.63;5.72;;;8.90;84.00;;;;;;5024435;28;20038;-76
2021/12/05 14:57:49;;;;;;;16.73;5.70;;;8.80;84.10;;;;;;5026306;28;20026;-77
2021/12/05 15:00:24;;;;;;;20.58;6.50;;;8.80;84.30;;;;;;5026427;28;20297;-75
2021/12/05 15:03:09;;;;;;;16.73;5.38;;;8.70;84.50;;;;;;5025012;28;20017;-76
2021/12/05 15:05:37;;;;;;;18.42;6.05;;;8.70;84.60;;;;;;5025660;28;20116;-76
2021/12/05 15:08:17;;;;;;;11.23;3.65;;;8.70;84.50;;;;;;5028722;28;20025;-76
2021/12/05 15:10:44;;;;;;;19.38;6.18;;;8.70;84.60;;;;;;5030152;28;20032;-75
2021/12/05 15:13:12;;;;;;;23.02;6.72;;;8.60;84.60;;;;;;5028567;28;20084;-76
2021/12/05 15:15:38;;;;;;;19.75;6.28;;;8.50;84.60;;;;;;5028350;28;20199;-76
2021/12/05 15:18:05;;;;;;;13.57;5.72;;;8.50;84.80;;;;;;5028253;28;20049;-76
2021/12/05 15:20:32;;;;;;;;;;;8.50;85.10;;;;;;5028966;28;20502;-75
2021/12/05 15:23:04;;;;;;;13.77;4.45;;;8.40;85.10;;;;;;5028691;28;20303;-75
2021/12/05 15:25:30;;;;;;;12.50;3.78;;;8.40;85.10;;;;;;5029713;28;20381;-76
2021/12/05 15:27:57;;;;;;;18.55;6.03;;;8.40;85.20;;;;;;5028318;28;20034;-77
2021/12/05 15:30:26;;;;;;;18.55;5.90;;;8.30;85.30;;;;;;5030113;28;20109;-76
2021/12/05 15:33:05;;;;;;;24.65;9.57;;;8.30;85.30;;;;;;5028598;28;20550;-77
2021/12/05 15:35:32;;;;;;;28.17;10.68;;;8.20;85.40;;;;;;5030043;28;20033;-76
2021/12/05 15:38:02;;;;;;;22.20;7.22;;;8.10;85.60;;;;;;5029874;28;20088;-76
2021/12/05 15:40:30;;;;;;;26.45;7.30;;;8.00;85.80;;;;;;5028526;28;20056;-76
2021/12/05 15:43:04;;;;;;;23.15;7.85;;;8.00;86.00;;;;;;5030040;28;20133;-75
2021/12/05 15:45:31;;;;;;;36.88;15.68;;;7.90;86.10;;;;;;5028181;28;20171;-76
2021/12/05 15:47:57;;;;;;;55.28;24.63;;;7.80;86.20;;;;;;5029359;28;20409;-76
2021/12/05 15:50:29;;;;;;;68.47;30.63;;;7.70;86.30;;;;;;5027812;28;20156;-77
2021/12/05 15:53:02;;;;;;;47.95;19.58;;;7.70;86.50;;;;;;5029929;28;20082;-76
2021/12/05 15:55:33;;;;;;;33.05;15.15;;;7.60;86.70;;;;;;5029246;28;20044;-76
2021/12/05 15:58:12;;;;;;;26.55;10.63;;;7.50;86.80;;;;;;5027578;28;20488;-77
2021/12/05 16:00:59;;;;;;;31.95;14.13;;;7.50;87.00;;;;;;5027652;28;20430;-78
2021/12/05 16:03:37;;;;;;;41.20;15.57;;;7.30;87.10;;;;;;5029376;28;20502;-76
2021/12/05 16:06:04;;;;;;;48.08;16.30;;;7.30;87.20;;;;;;5029680;28;20064;-77
2021/12/05 16:08:31;;;;;;;41.28;16.83;;;7.20;87.30;;;;;;5027616;28;20099;-78
2021/12/05 16:10:59;;;;;;;50.63;19.08;;;7.10;87.40;;;;;;5027572;28;20026;-77
2021/12/05 16:13:36;;;;;;;66.88;22.58;;;7.00;87.60;;;;;;5027668;28;20028;-78
2021/12/05 16:16:12;;;;;;;67.53;24.95;;;7.00;87.90;;;;;;5028763;28;20032;-76
2021/12/05 16:18:39;;;;;;;47.65;20.40;;;6.90;88.10;;;;;;5026866;28;20510;-77
2021/12/05 16:21:36;;;;;;;32.08;12.73;;;6.90;88.20;;;;;;5028458;28;20053;-77
2021/12/05 16:24:13;;;;;;;31.85;10.15;;;6.80;88.40;;;;;;5014669;28;20150;-77
2021/12/05 16:26:41;;;;;;;18.45;6.10;;;6.70;88.30;;;;;;5026852;28;20116;-78
2021/12/05 16:29:11;;;;;;;17.88;7.05;;;6.50;88.30;;;;;;5026634;28;20396;-77
2021/12/05 16:31:52;;;;;;;21.10;8.30;;;6.50;88.60;;;;;;5027022;28;20029;-80
2021/12/05 16:34:21;;;;;;;22.05;9.25;;;6.40;88.90;;;;;;5028235;28;20075;-77
2021/12/05 16:36:56;;;;;;;19.13;8.50;;;6.40;89.20;;;;;;5026783;28;20085;-77
2021/12/05 16:39:40;;;;;;;33.45;15.05;;;6.30;89.50;;;;;;5028488;28;20048;-78
2021/12/05 16:42:18;;;;;;;37.63;18.05;;;6.20;89.70;;;;;;5028508;28;20025;-78
2021/12/05 16:44:57;;;;;;;40.70;16.52;;;6.10;89.80;;;;;;5028947;28;20053;-78
2021/12/05 16:47:26;;;;;;;36.75;16.60;;;6.10;90.10;;;;;;5028701;28;20439;-78
2021/12/05 16:49:56;;;;;;;27.15;10.38;;;6.00;90.10;;;;;;5028733;28;20022;-78
2021/12/05 16:52:30;;;;;;;27.38;11.75;;;6.00;90.10;;;;;;5027064;28;20379;-78
2021/12/05 16:55:11;;;;;;;26.35;11.68;;;5.90;90.10;;;;;;5027343;28;20038;-77
2021/12/05 16:57:44;;;;;;;30.63;12.52;;;5.80;90.20;;;;;;5028119;28;20128;-76
2021/12/05 17:00:22;;;;;;;31.00;14.15;;;5.70;90.30;;;;;;5026206;28;20029;-78
2021/12/05 17:02:54;;;;;;;34.47;15.88;;;5.70;90.40;;;;;;5028176;28;20022;-77
2021/12/05 17:05:24;;;;;;;46.83;20.00;;;5.60;90.50;;;;;;5026801;28;20060;-77
2021/12/05 17:08:13;;;;;;;55.65;24.42;;;5.60;90.50;;;;;;5027151;28;20036;-77
2021/12/05 17:10:59;;;;;;;65.97;26.35;;;5.50;90.60;;;;;;5026668;28;20048;-77
2021/12/05 17:13:51;;;;;;;65.70;29.52;;;5.50;90.60;;;;;;5027930;28;20048;-77
2021/12/05 17:16:22;;;;;;;68.53;30.25;;;5.50;90.70;;;;;;5028291;28;20021;-77
2021/12/05 17:19:08;;;;;;;73.82;34.35;;;5.40;90.70;;;;;;5026453;28;20123;-77
2021/12/05 17:21:40;;;;;;;84.30;34.63;;;5.40;90.80;;;;;;5026899;28;20029;-76
2021/12/05 17:24:13;;;;;;;92.15;42.63;;;5.30;90.70;;;;;;5027031;28;20388;-76
2021/12/05 17:26:51;;;;;;;96.68;38.20;;;5.30;90.90;;;;;;5028079;28;20107;-78
2021/12/05 17:29:21;;;;;;;112.03;50.67;;;5.30;90.90;;;;;;5027704;28;20109;-77
2021/12/05 17:31:55;;;;;;;129.00;54.05;;;5.20;91.00;;;;;;5026725;28;20029;-76
2021/12/05 17:34:28;;;;;;;94.22;39.35;;;5.20;91.00;;;;;;5027862;28;20036;-78
2021/12/05 17:37:00;;;;;;;59.95;29.35;;;5.20;91.10;;;;;;5027524;28;20101;-76
2021/12/05 17:39:32;;;;;;;37.58;18.50;;;5.10;91.10;;;;;;5026306;28;20361;-77
2021/12/05 17:42:02;;;;;;;33.33;14.75;;;5.00;91.10;;;;;;5026608;28;20024;-79
2021/12/05 17:44:28;;;;;;;31.70;14.52;;;4.90;91.10;;;;;;5026370;28;20416;-77
2021/12/05 17:46:58;;;;;;;50.97;20.38;;;4.80;91.20;;;;;;5027763;28;20391;-73
2021/12/05 17:49:26;;;;;;;54.35;22.63;;;4.80;91.30;;;;;;5027650;28;20029;-78
2021/12/05 17:51:54;;;;;;;48.00;21.30;;;4.80;91.50;;;;;;5027157;28;20029;-77
2021/12/05 17:54:31;;;;;;;52.55;23.92;;;4.70;91.50;;;;;;5027227;28;20054;-77
2021/12/05 17:57:04;;;;;;;45.88;20.98;;;4.80;91.60;;;;;;5025881;28;20055;-77
2021/12/05 17:59:47;;;;;;;46.38;19.92;;;4.80;91.60;;;;;;5027613;28;20092;-78
2021/12/05 18:05:00;;;;;;;31.70;15.25;;;4.60;91.60;;;;;;5027720;28;20038;-77
2021/12/05 18:07:26;;;;;;;46.28;18.73;;;4.60;91.80;;;;;;5026312;28;20120;-78
2021/12/05 18:09:52;;;;;;;58.40;24.80;;;4.60;91.80;;;;;;5009289;28;20474;-78
2021/12/05 18:12:23;;;;;;;72.93;35.83;;;4.60;91.90;;;;;;5025581;28;20081;-77
2021/12/05 18:14:51;;;;;;;49.08;22.83;;;4.70;92.00;;;;;;5027140;28;20026;-76
2021/12/05 18:17:18;;;;;;;43.33;21.13;;;4.70;92.10;;;;;;5027039;28;20044;-78
2021/12/05 18:19:44;;;;;;;47.58;21.73;;;4.60;92.00;;;;;;5009503;28;20043;-77
2021/12/05 18:22:10;;;;;;;45.08;21.73;;;4.60;91.90;;;;;;5027067;28;20116;-78
2021/12/05 18:24:36;;;;;;;45.60;22.50;;;4.50;92.00;;;;;;5027175;28;20025;-77
2021/12/05 18:27:03;;;;;;;46.05;21.65;;;4.40;92.10;;;;;;5027121;28;20040;-78
2021/12/05 18:29:28;;;;;;;;;;;4.40;92.20;;;;;;5009639;28;20033;-78
2021/12/05 18:31:56;;;;;;;47.95;21.65;;;4.40;92.20;;;;;;5025763;28;20312;-77
2021/12/05 18:34:27;;;;;;;43.40;21.42;;;4.30;92.10;;;;;;5026953;28;20065;-77
2021/12/05 18:36:55;;;;;;;40.45;18.95;;;4.30;92.10;;;;;;5025629;28;20488;-79
2021/12/05 18:39:30;;;;;;;37.40;17.67;;;4.30;92.30;;;;;;5027241;28;20021;-78
2021/12/05 18:42:02;;;;;;;33.80;16.38;;;4.30;92.40;;;;;;5030029;28;20071;-78
2021/12/05 18:44:30;;;;;;;33.05;14.35;;;4.30;92.50;;;;;;5029524;28;20041;-78